Time;durP1;ratioP1;P1;durP2;ratioP2;P2;SDS_P1;SDS_P2;PMS_P1;PMS_P2;Temp;Humidity;BMP_temperature;BMP_pressure;BME280_temperature;BME280_humidity;BME280_pressure;Samples;Min_cycle;Max_cycle;Signal;HPM_P1;HPM_P2
2022/06/20 00:00:15;;;;;;;0.45;0.35;;;24.20;96.60;;;;;;4987471;28;20030;-74
2022/06/20 00:02:49;;;;;;;0.47;0.47;;;24.20;96.60;;;;;;4972756;28;20042;-74
2022/06/20 00:05:21;;;;;;;16.73;0.70;;;24.20;96.80;;;;;;4988076;28;20031;-75
2022/06/20 00:07:47;;;;;;;0.35;0.35;;;24.20;96.60;;;;;;4972538;28;20409;-74
2022/06/20 00:10:16;;;;;;;0.90;0.63;;;24.30;96.40;;;;;;4972168;28;20026;-74
2022/06/20 00:12:43;;;;;;;0.08;0.08;;;24.30;96.30;;;;;;4987621;28;20033;-73
2022/06/20 00:15:23;;;;;;;1.75;0.20;;;24.20;96.60;;;;;;4987658;28;20050;-74
2022/06/20 00:17:49;;;;;;;;;;;24.10;96.60;;;;;;4988276;28;20027;-74
2022/06/20 00:20:16;;;;;;;0.63;0.22;;;24.00;96.80;;;;;;4987605;28;20009;-74
2022/06/20 00:22:42;;;;;;;0.00;0.00;;;24.00;96.90;;;;;;4987273;28;20391;-73
2022/06/20 00:25:08;;;;;;;0.50;0.35;;;24.00;97.20;;;;;;4987389;28;20117;-73
2022/06/20 00:27:34;;;;;;;1.05;0.95;;;23.80;97.40;;;;;;4972076;28;20037;-74
2022/06/20 00:30:02;;;;;;;0.52;0.38;;;23.90;97.50;;;;;;4986960;28;20031;-74
2022/06/20 00:32:27;;;;;;;1.45;1.35;;;23.80;97.60;;;;;;4987166;28;20077;-74
2022/06/20 00:34:53;;;;;;;3.30;0.93;;;23.90;97.60;;;;;;4972628;28;20066;-74
2022/06/20 00:37:20;;;;;;;0.00;0.00;;;24.00;97.20;;;;;;4972370;28;20105;-74
2022/06/20 00:39:49;;;;;;;0.43;0.43;;;24.00;96.90;;;;;;4972281;28;20034;-74
2022/06/20 00:42:16;;;;;;;1.58;1.15;;;24.00;97.00;;;;;;4972009;28;20033;-74
2022/06/20 00:44:51;;;;;;;1.98;0.90;;;23.90;97.10;;;;;;4987001;28;20054;-74
2022/06/20 00:47:23;;;;;;;0.00;0.00;;;23.70;97.50;;;;;;4970673;28;20549;-74
2022/06/20 00:50:06;;;;;;;1.50;0.90;;;23.50;97.70;;;;;;4986455;28;20391;-74
2022/06/20 00:52:58;;;;;;;0.52;0.52;;;23.60;97.90;;;;;;4985388;28;20430;-74
2022/06/20 00:55:35;;;;;;;0.47;0.47;;;23.50;98.10;;;;;;4986412;28;20026;-74
2022/06/20 00:58:36;;;;;;;0.22;0.20;;;23.40;98.30;;;;;;4971909;28;20546;-74
2022/06/20 01:01:02;;;;;;;3.95;1.02;;;23.40;98.60;;;;;;4966390;28;20128;-74
2022/06/20 01:03:35;;;;;;;0.73;0.40;;;23.30;98.50;;;;;;4971994;28;20384;-74
2022/06/20 01:06:10;;;;;;;0.40;0.40;;;23.30;98.70;;;;;;4980088;28;20411;-74
2022/06/20 01:08:56;;;;;;;0.10;0.10;;;23.30;98.90;;;;;;4969660;28;20033;-74
2022/06/20 01:11:34;;;;;;;3.05;0.80;;;23.40;98.50;;;;;;4970186;28;20030;-74
2022/06/20 01:14:22;;;;;;;0.70;0.30;;;23.40;98.20;;;;;;4970564;28;20031;-74
2022/06/20 01:16:50;;;;;;;0.22;0.22;;;23.30;98.60;;;;;;4970804;28;20027;-73
2022/06/20 01:20:00;;;;;;;0.10;0.10;;;23.20;98.80;;;;;;4970189;28;20034;-74
2022/06/20 01:22:56;;;;;;;0.00;0.00;;;23.10;99.10;;;;;;4971613;28;20125;-74
2022/06/20 01:26:25;;;;;;;0.52;0.50;;;23.00;99.40;;;;;;4971938;28;20387;-74
2022/06/20 01:28:59;;;;;;;0.20;0.17;;;23.10;99.10;;;;;;4929892;29;20208;-74
2022/06/20 01:31:28;;;;;;;0.00;0.00;;;23.10;98.90;;;;;;4930813;29;20497;-73
2022/06/20 01:33:58;;;;;;;0.43;0.43;;;23.10;98.90;;;;;;4930265;29;20095;-74
2022/06/20 01:39:17;;;;;;;0.10;0.10;;;22.90;98.70;;;;;;4951543;28;20051;-74
2022/06/20 01:44:35;;;;;;;0.98;0.73;;;22.80;99.00;;;;;;4934429;29;20142;-74
2022/06/20 01:47:01;;;;;;;1.52;1.42;;;22.80;99.20;;;;;;4934402;29;20036;-74
2022/06/20 01:49:31;;;;;;;17.08;0.55;;;22.70;99.40;;;;;;4934168;29;20044;-73
2022/06/20 01:52:26;;;;;;;0.00;0.00;;;22.60;99.40;;;;;;4934318;29;20054;-74
2022/06/20 01:54:56;;;;;;;0.85;0.28;;;22.60;99.70;;;;;;4934298;29;20051;-73
2022/06/20 01:57:24;;;;;;;0.13;0.13;;;22.60;99.70;;;;;;4934127;29;20080;-74
2022/06/20 02:00:13;;;;;;;0.10;0.10;;;22.50;99.70;;;;;;4945551;29;20039;-73
2022/06/20 02:02:44;;;;;;;2.28;1.20;;;22.50;99.60;;;;;;4955814;28;20023;-74
2022/06/20 02:05:17;;;;;;;0.90;0.35;;;22.40;99.40;;;;;;4954939;29;20051;-74
2022/06/20 02:07:43;;;;;;;0.35;0.35;;;22.30;99.40;;;;;;4954552;29;20113;-73
2022/06/20 02:10:14;;;;;;;0.00;0.00;;;22.20;99.40;;;;;;4954521;29;20484;-74
2022/06/20 02:12:40;;;;;;;0.05;0.05;;;22.20;99.00;;;;;;4955867;28;20353;-74
2022/06/20 02:15:07;;;;;;;2.38;1.50;;;22.20;98.90;;;;;;4959774;28;20030;-74
2022/06/20 02:17:41;;;;;;;0.00;0.00;;;22.10;99.40;;;;;;4973588;28;20399;-74
2022/06/20 02:20:13;;;;;;;0.30;0.30;;;22.00;99.90;;;;;;4973298;28;20054;-74
2022/06/20 02:22:40;;;;;;;0.60;0.10;;;22.00;99.90;;;;;;4973727;28;20031;-73
2022/06/20 02:25:14;;;;;;;0.00;0.00;;;21.90;99.90;;;;;;4973782;28;20043;-74
2022/06/20 02:27:50;;;;;;;0.15;0.15;;;21.80;99.90;;;;;;4973882;28;20059;-73
2022/06/20 02:30:16;;;;;;;5.63;0.90;;;21.70;99.90;;;;;;4973132;28;20031;-74
2022/06/20 02:32:47;;;;;;;0.55;0.55;;;21.70;99.90;;;;;;4974591;28;20018;-73
2022/06/20 02:35:20;;;;;;;0.03;0.03;;;21.60;99.90;;;;;;4957834;28;20105;-74
2022/06/20 02:37:47;;;;;;;0.70;0.35;;;21.60;99.90;;;;;;4986373;23;20080;-74
2022/06/20 02:40:19;;;;;;;0.52;0.47;;;21.50;99.90;;;;;;4971809;28;20046;-74
2022/06/20 02:43:09;;;;;;;1.65;1.08;;;21.40;99.90;;;;;;4973118;28;20031;-74
2022/06/20 02:45:39;;;;;;;0.35;0.22;;;21.30;99.90;;;;;;4973143;28;20406;-74
2022/06/20 02:48:08;;;;;;;0.20;0.20;;;21.40;99.90;;;;;;4973540;28;20035;-74
2022/06/20 02:51:00;;;;;;;0.77;0.47;;;21.50;99.90;;;;;;4972258;28;20510;-74
2022/06/20 02:53:48;;;;;;;0.05;0.05;;;21.50;99.90;;;;;;4973380;28;20054;-75
2022/06/20 02:56:18;;;;;;;1.45;0.55;;;21.40;99.90;;;;;;4957472;28;20054;-75
2022/06/20 02:58:52;;;;;;;1.45;1.10;;;21.50;99.90;;;;;;4972582;28;20073;-74
2022/06/20 03:01:38;;;;;;;0.20;0.20;;;21.40;99.90;;;;;;4973154;28;20054;-74
2022/06/20 03:04:06;;;;;;;0.52;0.32;;;21.40;99.90;;;;;;4972786;28;20042;-75
2022/06/20 03:06:35;;;;;;;0.08;0.08;;;21.30;99.90;;;;;;4973048;28;20030;-75
2022/06/20 03:09:02;;;;;;;0.68;0.63;;;21.30;99.90;;;;;;4973422;28;20039;-75
2022/06/20 03:11:34;;;;;;;0.00;0.00;;;21.20;99.90;;;;;;4972783;28;20030;-74
2022/06/20 03:14:04;;;;;;;0.10;0.10;;;21.30;99.90;;;;;;4972849;28;20125;-75
2022/06/20 03:16:32;;;;;;;0.00;0.00;;;21.20;99.90;;;;;;4972552;28;20089;-75
2022/06/20 03:19:00;;;;;;;0.60;0.57;;;21.30;99.90;;;;;;4973568;28;20377;-76
2022/06/20 03:21:35;;;;;;;0.65;0.65;;;21.30;99.90;;;;;;4972601;28;20027;-75
2022/06/20 03:24:03;;;;;;;0.30;0.30;;;21.20;99.90;;;;;;4972538;28;20031;-75
2022/06/20 03:26:30;;;;;;;0.38;0.32;;;21.10;99.90;;;;;;4973651;28;20673;-75
2022/06/20 03:28:58;;;;;;;0.00;0.00;;;21.20;99.90;;;;;;4973181;28;20550;-74
2022/06/20 03:31:24;;;;;;;0.40;0.40;;;21.10;99.90;;;;;;4972511;28;20118;-74
2022/06/20 03:33:50;;;;;;;0.95;0.43;;;21.10;99.90;;;;;;4973273;28;20041;-74
2022/06/20 03:36:27;;;;;;;0.08;0.08;;;21.10;99.90;;;;;;4970866;28;20018;-77
2022/06/20 03:38:55;;;;;;;0.77;0.55;;;21.00;99.90;;;;;;4975254;28;20092;-77
2022/06/20 03:41:26;;;;;;;2.33;1.02;;;21.00;99.90;;;;;;4971763;28;20031;-78
2022/06/20 03:44:20;;;;;;;0.22;0.22;;;20.90;99.90;;;;;;4971287;28;20146;-78
2022/06/20 03:47:01;;;;;;;0.25;0.17;;;21.10;99.90;;;;;;4952699;29;20070;-78
2022/06/20 03:49:48;;;;;;;1.30;0.70;;;21.50;99.90;;;;;;4948015;28;20027;-77
2022/06/20 03:52:23;;;;;;;2.97;0.75;;;21.50;99.70;;;;;;4971888;28;20616;-77
2022/06/20 03:55:14;;;;;;;0.00;0.00;;;21.40;99.90;;;;;;4971828;28;20101;-76
2022/06/20 03:57:52;;;;;;;;;;;21.40;99.90;;;;;;4972991;28;20050;-78
2022/06/20 04:00:36;;;;;;;0.47;0.30;;;21.40;99.90;;;;;;4972122;28;19910;-73
2022/06/20 04:03:14;;;;;;;0.15;0.15;;;21.20;99.90;;;;;;4971340;28;20482;-77
2022/06/20 04:05:50;;;;;;;0.03;0.03;;;21.40;99.90;;;;;;4972819;28;20042;-73
2022/06/20 04:10:57;;;;;;;0.00;0.00;;;21.60;99.80;;;;;;4967779;28;20042;-75
2022/06/20 04:11:18;;;;;;;4.43;1.85;;;21.00;99.90;;;;;;4952318;29;20036;-74
2022/06/20 04:14:17;;;;;;;0.00;0.00;;;20.60;99.90;;;;;;4952133;29;20034;-75
2022/06/20 04:16:53;;;;;;;0.00;0.00;;;20.80;99.90;;;;;;4971041;28;20495;-74
2022/06/20 04:19:35;;;;;;;0.22;0.22;;;20.80;99.90;;;;;;4971808;28;20092;-74
2022/06/20 04:22:33;;;;;;;0.43;0.43;;;20.60;99.90;;;;;;4972464;28;20058;-74
2022/06/20 04:25:12;;;;;;;0.28;0.20;;;20.50;99.90;;;;;;4979525;28;20515;-74
2022/06/20 04:27:54;;;;;;;0.10;0.10;;;20.60;99.90;;;;;;4970866;28;20057;-74
2022/06/20 04:30:37;;;;;;;0.10;0.10;;;20.80;99.80;;;;;;4971027;28;20056;-74
2022/06/20 04:33:19;;;;;;;26.77;1.35;;;20.70;99.80;;;;;;4972363;28;20031;-74
2022/06/20 04:36:20;;;;;;;0.13;0.10;;;20.70;99.60;;;;;;4971209;28;20031;-74
2022/06/20 04:38:59;;;;;;;0.22;0.20;;;20.80;99.60;;;;;;4971700;28;20046;-70
2022/06/20 04:41:57;;;;;;;1.15;0.45;;;20.70;99.90;;;;;;4971001;28;20062;-70
2022/06/20 04:44:38;;;;;;;0.63;0.63;;;20.90;99.70;;;;;;4971531;28;20066;-70
2022/06/20 04:47:26;;;;;;;0.32;0.22;;;21.30;98.80;;;;;;4971016;28;20034;-70
2022/06/20 04:49:52;;;;;;;1.23;1.08;;;21.40;98.00;;;;;;4971588;28;20514;-70
2022/06/20 04:52:24;;;;;;;0.20;0.20;;;21.40;98.60;;;;;;4971846;28;20030;-70
2022/06/20 04:54:50;;;;;;;0.10;0.10;;;21.40;97.40;;;;;;4955006;28;20050;-69
2022/06/20 04:57:16;;;;;;;6.53;4.00;;;21.50;97.40;;;;;;4970430;28;20109;-70
2022/06/20 04:59:43;;;;;;;0.52;0.52;;;21.50;98.00;;;;;;4969897;28;20562;-70
2022/06/20 05:02:18;;;;;;;0.90;0.20;;;21.40;97.60;;;;;;4971533;28;20514;-71
2022/06/20 05:04:46;;;;;;;0.20;0.20;;;21.10;98.00;;;;;;4971352;28;20027;-70
2022/06/20 05:07:26;;;;;;;0.10;0.10;;;21.40;98.00;;;;;;4962861;28;20154;-71
2022/06/20 05:10:21;;;;;;;3.50;1.65;;;21.70;97.40;;;;;;4958221;28;20027;-73
2022/06/20 05:13:11;;;;;;;0.63;0.38;;;21.80;96.60;;;;;;4970635;28;20117;-72
2022/06/20 05:15:46;;;;;;;0.00;0.00;;;22.00;96.60;;;;;;4960366;28;20353;-72
2022/06/20 05:18:37;;;;;;;0.17;0.10;;;22.30;95.90;;;;;;4951973;28;20062;-71
2022/06/20 05:21:12;;;;;;;0.32;0.13;;;22.20;95.50;;;;;;4950860;29;20119;-76
2022/06/20 05:23:44;;;;;;;1.08;0.52;;;22.30;95.50;;;;;;4951017;29;20039;-70
2022/06/20 05:26:23;;;;;;;0.20;0.20;;;22.60;95.10;;;;;;4950952;29;20114;-70
2022/06/20 05:28:52;;;;;;;0.00;0.00;;;22.70;94.60;;;;;;4950989;29;20038;-71
2022/06/20 05:31:37;;;;;;;0.15;0.10;;;22.70;94.60;;;;;;4952001;28;20688;-70
2022/06/20 05:34:33;;;;;;;0.00;0.00;;;22.90;94.20;;;;;;4954520;28;20096;-70
2022/06/20 05:37:16;;;;;;;0.05;0.00;;;22.70;94.50;;;;;;4976969;28;20082;-71
2022/06/20 05:39:56;;;;;;;0.68;0.43;;;22.90;95.00;;;;;;4969661;28;20035;-77
2022/06/20 05:42:22;;;;;;;0.00;0.00;;;23.00;95.00;;;;;;4970047;28;20037;-74
2022/06/20 05:44:48;;;;;;;0.70;0.57;;;22.60;96.60;;;;;;4971413;28;20027;-70
2022/06/20 05:47:26;;;;;;;1.13;0.43;;;22.40;97.20;;;;;;4970712;28;20118;-73
2022/06/20 05:50:14;;;;;;;0.00;0.00;;;22.00;98.30;;;;;;4971438;28;20114;-77
2022/06/20 05:52:42;;;;;;;0.10;0.10;;;21.90;99.50;;;;;;4971516;28;20043;-71
2022/06/20 05:55:18;;;;;;;0.88;0.52;;;22.10;99.30;;;;;;4969643;28;20620;-72
2022/06/20 05:57:48;;;;;;;0.43;0.38;;;22.40;98.70;;;;;;4971342;28;20038;-74
2022/06/20 06:00:21;;;;;;;1.05;0.65;;;22.20;98.90;;;;;;4969511;28;20101;-73
2022/06/20 06:03:09;;;;;;;0.08;0.08;;;22.20;98.60;;;;;;4951642;28;20571;-71
2022/06/20 06:05:39;;;;;;;0.28;0.28;;;22.20;98.20;;;;;;4951737;28;20039;-71
2022/06/20 06:08:26;;;;;;;1.48;0.50;;;22.30;98.00;;;;;;4989799;28;20089;-72
2022/06/20 06:11:15;;;;;;;0.47;0.47;;;22.60;96.90;;;;;;4990674;28;20030;-71
2022/06/20 06:13:50;;;;;;;0.25;0.20;;;22.80;96.40;;;;;;4990893;28;20054;-70
2022/06/20 06:17:13;;;;;;;0.00;0.00;;;22.80;96.10;;;;;;4990318;28;20049;-70
2022/06/20 06:19:53;;;;;;;0.00;0.00;;;23.00;95.70;;;;;;4990087;28;20100;-71
2022/06/20 06:22:31;;;;;;;0.00;0.00;;;23.10;95.30;;;;;;4990637;28;20038;-71
2022/06/20 06:25:16;;;;;;;0.38;0.38;;;23.00;95.20;;;;;;4992944;28;20754;-69
2022/06/20 06:27:45;;;;;;;0.20;0.20;;;22.90;95.50;;;;;;4992561;28;20096;-69
2022/06/20 06:30:56;;;;;;;0.00;0.00;;;22.80;95.70;;;;;;4992656;28;20522;-69
2022/06/20 06:33:31;;;;;;;;;;;22.80;95.70;;;;;;4974635;28;20065;-69
2022/06/20 06:36:36;;;;;;;0.65;0.60;;;22.70;96.30;;;;;;4993118;28;20351;-69
2022/06/20 06:39:20;;;;;;;0.00;0.00;;;22.80;96.20;;;;;;4977882;28;20069;-76
2022/06/20 06:41:51;;;;;;;0.28;0.25;;;22.80;96.20;;;;;;4993329;28;20510;-76
2022/06/20 06:44:28;;;;;;;0.00;0.00;;;22.70;96.70;;;;;;4992883;28;20037;-75
2022/06/20 06:46:55;;;;;;;0.75;0.65;;;21.80;97.60;;;;;;4992348;28;20081;-76
2022/06/20 06:49:45;;;;;;;0.28;0.28;;;22.00;98.50;;;;;;4992039;28;20037;-75
2022/06/20 06:52:25;;;;;;;4.03;1.85;;;21.70;99.20;;;;;;4976651;28;20390;-76
2022/06/20 06:55:37;;;;;;;0.10;0.00;;;21.30;99.90;;;;;;4992269;28;20602;-75
2022/06/20 06:58:25;;;;;;;0.65;0.65;;;21.30;99.90;;;;;;4933120;29;20047;-73
2022/06/20 07:01:03;;;;;;;0.00;0.00;;;21.60;99.90;;;;;;4933050;29;20086;-76
2022/06/20 07:03:48;;;;;;;0.30;0.30;;;21.20;99.90;;;;;;4918343;29;20128;-77
2022/06/20 07:06:25;;;;;;;0.77;0.77;;;21.30;99.90;;;;;;4932847;29;20129;-70
2022/06/20 07:09:28;;;;;;;0.43;0.43;;;21.50;99.90;;;;;;4917139;29;20520;-69
2022/06/20 07:12:09;;;;;;;1.52;1.10;;;21.70;99.90;;;;;;4932939;29;20028;-68
2022/06/20 07:14:41;;;;;;;3.20;1.42;;;22.00;99.90;;;;;;4932687;29;20488;-69
2022/06/20 07:17:33;;;;;;;0.10;0.10;;;21.80;99.90;;;;;;4932699;29;20381;-69
2022/06/20 07:20:01;;;;;;;0.03;0.03;;;22.00;99.90;;;;;;4917390;29;20523;-67
2022/06/20 07:22:27;;;;;;;0.00;0.00;;;22.40;99.10;;;;;;4901379;29;20612;-67
2022/06/20 07:24:54;;;;;;;0.10;0.10;;;22.50;98.30;;;;;;4932902;29;20036;-68
2022/06/20 07:27:42;;;;;;;2.10;1.23;;;22.70;98.00;;;;;;4917126;29;20067;-68
2022/06/20 07:30:15;;;;;;;0.15;0.05;;;22.50;98.20;;;;;;4992778;28;20577;-68
2022/06/20 07:32:51;;;;;;;8.52;0.70;;;22.80;97.60;;;;;;4991871;28;20040;-68
2022/06/20 07:35:23;;;;;;;4.03;0.93;;;22.80;97.50;;;;;;4990805;28;20479;-68
2022/06/20 07:38:21;;;;;;;0.15;0.15;;;22.60;98.00;;;;;;4984289;28;20039;-68
2022/06/20 07:40:57;;;;;;;0.10;0.10;;;22.30;99.10;;;;;;4971929;28;20402;-70
2022/06/20 07:43:55;;;;;;;0.10;0.10;;;22.10;99.90;;;;;;4972256;28;20030;-69
2022/06/20 07:46:39;;;;;;;0.00;0.00;;;22.20;99.00;;;;;;4957311;28;20041;-68
2022/06/20 07:49:33;;;;;;;0.35;0.25;;;21.90;99.40;;;;;;4971913;28;20403;-69
2022/06/20 07:52:08;;;;;;;0.08;0.08;;;21.60;99.90;;;;;;4972863;28;20597;-69
2022/06/20 07:54:42;;;;;;;0.28;0.20;;;21.90;99.90;;;;;;4972247;28;20387;-70
2022/06/20 07:57:48;;;;;;;14.70;1.38;;;22.20;99.70;;;;;;4971208;28;20063;-69
2022/06/20 08:00:18;;;;;;;0.40;0.38;;;21.80;99.90;;;;;;4971618;28;20054;-69
2022/06/20 08:02:56;;;;;;;0.57;0.57;;;21.90;99.90;;;;;;4971224;28;20074;-69
2022/06/20 08:05:50;;;;;;;2.75;1.38;;;21.90;99.90;;;;;;4972922;28;20039;-69
2022/06/20 08:08:47;;;;;;;1.10;0.73;;;22.00;99.90;;;;;;4952256;29;20483;-69
2022/06/20 08:11:41;;;;;;;0.08;0.00;;;22.10;99.90;;;;;;4952655;29;20499;-69
2022/06/20 08:14:43;;;;;;;0.38;0.38;;;22.20;99.90;;;;;;4952807;29;20110;-69
2022/06/20 08:17:12;;;;;;;0.00;0.00;;;22.10;99.90;;;;;;4953596;28;20038;-69
2022/06/20 08:19:42;;;;;;;0.20;0.17;;;22.30;99.90;;;;;;4951863;28;20165;-69
2022/06/20 08:22:34;;;;;;;3.08;1.52;;;22.30;99.90;;;;;;4952458;29;20436;-69
2022/06/20 08:25:18;;;;;;;0.20;0.20;;;22.50;99.90;;;;;;4952853;28;20039;-69
2022/06/20 08:27:51;;;;;;;1.02;0.20;;;22.50;99.90;;;;;;4952244;29;20111;-69
2022/06/20 08:30:29;;;;;;;0.70;0.35;;;22.30;99.90;;;;;;4951712;29;20062;-69
2022/06/20 08:33:13;;;;;;;6.75;1.85;;;22.20;99.90;;;;;;4952122;29;20069;-69
2022/06/20 08:36:08;;;;;;;3.20;1.15;;;21.80;99.90;;;;;;4953232;28;20059;-69
2022/06/20 08:39:17;;;;;;;0.15;0.15;;;21.80;99.90;;;;;;4969403;23;20046;-66
2022/06/20 08:42:28;;;;;;;0.75;0.47;;;22.00;99.90;;;;;;4964238;28;20122;-66
2022/06/20 08:45:04;;;;;;;0.30;0.30;;;22.60;99.90;;;;;;4971304;28;20537;-67
2022/06/20 08:47:57;;;;;;;0.10;0.10;;;22.80;99.90;;;;;;4972044;28;20035;-67
2022/06/20 08:51:13;;;;;;;0.40;0.32;;;23.10;99.90;;;;;;4952991;28;20062;-66
2022/06/20 08:54:00;;;;;;;1.88;0.38;;;22.50;99.90;;;;;;4944523;28;20066;-66
2022/06/20 08:56:51;;;;;;;0.10;0.10;;;22.70;99.90;;;;;;4967838;28;20035;-66
2022/06/20 08:59:47;;;;;;;0.52;0.52;;;23.10;98.60;;;;;;4951606;29;20054;-66
2022/06/20 09:02:50;;;;;;;0.40;0.40;;;23.10;98.70;;;;;;4952775;28;20073;-66
2022/06/20 09:05:55;;;;;;;0.52;0.38;;;23.30;98.40;;;;;;4952819;28;20479;-66
2022/06/20 09:09:01;;;;;;;1.17;1.00;;;23.70;97.20;;;;;;4948116;29;20043;-66
2022/06/20 09:11:57;;;;;;;0.40;0.40;;;23.80;96.80;;;;;;4933385;29;20067;-67
2022/06/20 09:15:13;;;;;;;3.83;0.40;;;23.20;97.60;;;;;;4933494;29;20398;-67
2022/06/20 09:18:14;;;;;;;0.47;0.47;;;23.70;97.00;;;;;;4936959;29;20427;-66
2022/06/20 09:21:05;;;;;;;1.58;0.95;;;23.90;96.30;;;;;;4947088;29;20046;-66
2022/06/20 09:23:46;;;;;;;0.10;0.10;;;23.80;97.40;;;;;;4933917;29;20031;-66
2022/06/20 09:26:45;;;;;;;0.13;0.10;;;23.80;97.70;;;;;;4933321;29;20047;-66
2022/06/20 09:29:36;;;;;;;0.30;0.30;;;23.60;97.80;;;;;;4946918;29;20043;-65
2022/06/20 09:32:29;;;;;;;;;;;23.40;99.50;;;;;;4947195;29;20480;-66
2022/06/20 09:35:06;;;;;;;0.00;0.00;;;23.20;99.90;;;;;;4933109;29;19969;-66
2022/06/20 09:37:59;;;;;;;0.52;0.52;;;22.80;99.90;;;;;;4961567;28;20078;-66
2022/06/20 09:40:56;;;;;;;0.75;0.55;;;22.70;99.90;;;;;;4951064;29;20118;-66
2022/06/20 09:43:44;;;;;;;2.13;0.60;;;23.10;99.90;;;;;;4950869;29;20054;-66
2022/06/20 09:46:27;;;;;;;0.30;0.30;;;23.60;99.90;;;;;;4954564;28;20402;-66
2022/06/20 09:49:14;;;;;;;0.45;0.45;;;23.90;99.90;;;;;;4950857;29;20023;-66
2022/06/20 09:52:11;;;;;;;0.47;0.45;;;24.10;99.90;;;;;;4952667;28;20511;-70
2022/06/20 09:55:24;;;;;;;0.75;0.45;;;24.10;99.90;;;;;;4953838;29;20066;-70
2022/06/20 09:58:20;;;;;;;0.20;0.20;;;23.90;99.90;;;;;;4949910;28;20050;-70
2022/06/20 10:00:57;;;;;;;0.28;0.20;;;23.90;99.90;;;;;;4954346;29;20030;-69
2022/06/20 10:03:34;;;;;;;0.00;0.00;;;24.00;99.90;;;;;;4954729;29;20659;-71
2022/06/20 10:06:29;;;;;;;0.10;0.10;;;24.30;99.90;;;;;;4954804;29;20027;-71
2022/06/20 10:09:39;;;;;;;0.28;0.28;;;24.60;99.90;;;;;;4955476;28;20106;-70
2022/06/20 10:12:41;;;;;;;0.30;0.17;;;24.80;98.80;;;;;;4966838;28;20043;-71
2022/06/20 10:15:43;;;;;;;2.85;0.63;;;24.90;98.20;;;;;;4947543;28;20043;-71
2022/06/20 10:18:34;;;;;;;0.40;0.25;;;24.80;98.00;;;;;;4955197;28;20043;-68
2022/06/20 10:21:30;;;;;;;0.10;0.10;;;24.50;98.60;;;;;;4954306;28;20047;-71
2022/06/20 10:24:17;;;;;;;0.00;0.00;;;24.30;98.60;;;;;;4955588;28;20044;-71
2022/06/20 10:27:34;;;;;;;2.50;0.93;;;24.10;99.10;;;;;;4955557;28;20384;-72
2022/06/20 10:30:05;;;;;;;0.00;0.00;;;24.10;99.20;;;;;;4955035;28;20051;-71
2022/06/20 10:33:17;;;;;;;2.28;0.47;;;24.00;99.10;;;;;;4955691;28;20038;-71
2022/06/20 10:36:30;;;;;;;0.03;0.03;;;23.90;99.10;;;;;;4967193;28;20122;-71
2022/06/20 10:39:26;;;;;;;0.13;0.10;;;23.70;99.30;;;;;;4938223;28;20388;-71
2022/06/20 10:42:20;;;;;;;0.00;0.00;;;23.50;99.30;;;;;;4954254;29;20037;-71
2022/06/20 10:45:27;;;;;;;1.77;0.68;;;23.50;99.40;;;;;;4953969;29;20035;-70
2022/06/20 10:48:13;;;;;;;0.00;0.00;;;23.80;98.70;;;;;;4954901;28;20485;-71
2022/06/20 10:51:15;;;;;;;0.40;0.20;;;24.00;97.70;;;;;;4954785;28;20035;-71
2022/06/20 10:54:59;;;;;;;0.05;0.05;;;24.10;97.90;;;;;;4954200;29;20047;-70
2022/06/20 10:58:09;;;;;;;0.08;0.00;;;24.30;97.20;;;;;;4931853;29;20051;-71
2022/06/20 11:00:45;;;;;;;0.17;0.17;;;24.30;97.20;;;;;;4932875;29;20036;-71
2022/06/20 11:03:39;;;;;;;0.03;0.03;;;24.00;97.10;;;;;;4918135;29;20052;-70
2022/06/20 11:06:47;;;;;;;0.00;0.00;;;23.60;97.20;;;;;;4917015;29;20055;-70
2022/06/20 11:09:23;;;;;;;0.00;0.00;;;23.50;97.20;;;;;;4887238;29;20051;-70
2022/06/20 11:12:24;;;;;;;0.00;0.00;;;23.50;96.80;;;;;;4917046;29;20048;-70
2022/06/20 11:15:12;;;;;;;0.00;0.00;;;23.50;96.60;;;;;;4915377;29;20087;-71
2022/06/20 11:17:47;;;;;;;0.10;0.10;;;23.40;96.40;;;;;;4932868;29;20042;-70
2022/06/20 11:20:25;;;;;;;0.00;0.00;;;23.10;97.00;;;;;;4916875;29;20722;-70
2022/06/20 11:23:26;;;;;;;0.00;0.00;;;22.80;97.30;;;;;;4932897;29;20030;-70
2022/06/20 11:26:08;;;;;;;0.00;0.00;;;23.10;97.30;;;;;;4915915;29;20513;-70
2022/06/20 11:29:38;;;;;;;0.00;0.00;;;23.30;97.30;;;;;;4916363;29;20049;-70
2022/06/20 11:32:54;;;;;;;0.22;0.20;;;23.60;96.90;;;;;;4913226;29;20046;-70
2022/06/20 11:35:41;;;;;;;0.03;0.03;;;23.70;96.60;;;;;;4954093;28;20046;-71
2022/06/20 11:38:30;;;;;;;0.05;0.05;;;23.70;96.60;;;;;;4952962;29;20027;-71
2022/06/20 11:41:17;;;;;;;0.38;0.38;;;23.70;96.40;;;;;;4956699;28;20050;-71
2022/06/20 11:44:30;;;;;;;1.05;0.68;;;23.30;97.10;;;;;;4952741;29;20428;-71
2022/06/20 11:47:20;;;;;;;1.10;0.85;;;23.00;98.10;;;;;;4952985;29;20039;-70
2022/06/20 11:50:04;;;;;;;0.00;0.00;;;22.70;98.00;;;;;;4953564;28;20066;-70
2022/06/20 11:52:51;;;;;;;0.25;0.20;;;22.60;98.20;;;;;;4954099;28;20114;-70
2022/06/20 11:55:38;;;;;;;0.28;0.13;;;22.70;97.70;;;;;;4968871;28;20042;-70
2022/06/20 11:58:32;;;;;;;0.00;0.00;;;22.30;98.20;;;;;;4952321;28;20050;-70
2022/06/20 12:01:12;;;;;;;0.25;0.20;;;21.80;99.20;;;;;;4955542;28;20077;-70
2022/06/20 12:03:48;;;;;;;0.30;0.30;;;21.80;99.40;;;;;;4953882;28;20097;-71
2022/06/20 12:06:31;;;;;;;0.88;0.60;;;21.80;99.90;;;;;;4953709;28;20089;-70
2022/06/20 12:09:10;;;;;;;0.20;0.20;;;21.90;99.80;;;;;;4953245;28;20039;-70
2022/06/20 12:11:57;;;;;;;0.00;0.00;;;21.80;99.50;;;;;;4952548;29;20034;-70
2022/06/20 12:14:52;;;;;;;0.00;0.00;;;21.90;99.40;;;;;;4954046;28;20619;-71
2022/06/20 12:17:36;;;;;;;0.00;0.00;;;21.80;99.40;;;;;;4952952;29;20106;-70
2022/06/20 12:23:18;;;;;;;0.00;0.00;;;21.80;99.30;;;;;;4953190;29;20126;-70
2022/06/20 12:25:57;;;;;;;27.70;0.70;;;21.80;98.80;;;;;;4952254;28;20110;-70
2022/06/20 12:28:41;;;;;;;0.20;0.17;;;22.30;98.30;;;;;;4952165;29;20059;-70
2022/06/20 12:31:21;;;;;;;0.75;0.25;;;23.20;96.10;;;;;;4952521;29;20059;-70
2022/06/20 12:34:16;;;;;;;0.65;0.20;;;23.70;95.20;;;;;;4953239;28;20047;-71
2022/06/20 12:37:12;;;;;;;0.10;0.10;;;23.80;94.80;;;;;;4953217;28;20488;-70
2022/06/20 12:39:48;;;;;;;0.00;0.00;;;23.50;95.00;;;;;;4952606;28;20412;-71
2022/06/20 12:42:41;;;;;;;0.10;0.10;;;23.70;95.00;;;;;;4951754;29;20074;-70
2022/06/20 12:45:52;;;;;;;0.10;0.10;;;23.70;95.10;;;;;;4952210;29;20495;-71
2022/06/20 12:48:33;;;;;;;0.00;0.00;;;23.30;95.60;;;;;;4951890;29;20082;-71
2022/06/20 12:51:55;;;;;;;0.10;0.10;;;23.50;95.40;;;;;;4953286;28;20246;-70
2022/06/20 12:55:24;;;;;;;0.22;0.22;;;23.50;95.40;;;;;;4952849;28;20070;-70
2022/06/20 12:58:16;;;;;;;0.00;0.00;;;23.20;95.90;;;;;;4935964;28;20066;-70
2022/06/20 13:00:51;;;;;;;0.25;0.22;;;23.10;96.00;;;;;;4952638;28;20451;-70
2022/06/20 13:03:39;;;;;;;0.50;0.47;;;22.90;96.10;;;;;;4951350;29;20499;-70
2022/06/20 13:06:30;;;;;;;0.00;0.00;;;22.70;96.00;;;;;;4951423;29;20031;-70
2022/06/20 13:09:13;;;;;;;0.03;0.03;;;22.70;96.20;;;;;;4950533;29;20042;-70
2022/06/20 13:11:57;;;;;;;0.00;0.00;;;22.70;96.10;;;;;;4952743;28;20063;-70
2022/06/20 13:15:08;;;;;;;0.10;0.03;;;22.50;96.10;;;;;;4952492;28;20369;-68
2022/06/20 13:18:04;;;;;;;0.00;0.00;;;22.00;96.90;;;;;;4952044;29;20039;-68
2022/06/20 13:21:02;;;;;;;0.00;0.00;;;22.30;96.40;;;;;;4952637;28;20039;-68
2022/06/20 13:24:11;;;;;;;0.00;0.00;;;22.60;96.10;;;;;;4951191;29;20031;-69
2022/06/20 13:26:52;;;;;;;0.10;0.10;;;22.60;95.90;;;;;;4952322;28;20031;-69
2022/06/20 13:29:29;;;;;;;;;;;22.90;95.40;;;;;;4952457;28;20491;-69
2022/06/20 13:32:30;;;;;;;0.85;0.28;;;22.80;95.20;;;;;;4965915;28;20008;-70
2022/06/20 13:35:27;;;;;;;0.00;0.00;;;22.80;95.30;;;;;;4952463;28;20046;-70
2022/06/20 13:38:24;;;;;;;0.10;0.10;;;23.50;94.50;;;;;;4951801;28;20027;-69
2022/06/20 13:41:33;;;;;;;0.00;0.00;;;24.10;93.00;;;;;;4935447;29;20495;-70
2022/06/20 13:44:06;;;;;;;1.90;0.20;;;24.00;92.90;;;;;;4928218;28;20415;-70
2022/06/20 13:47:00;;;;;;;0.00;0.00;;;23.70;93.40;;;;;;4931974;29;20038;-69
2022/06/20 13:49:42;;;;;;;0.00;0.00;;;23.40;93.50;;;;;;4935027;28;20040;-69
2022/06/20 13:52:24;;;;;;;0.00;0.00;;;23.00;94.00;;;;;;4971369;28;20030;-69
2022/06/20 13:55:17;;;;;;;0.00;0.00;;;22.70;94.30;;;;;;4969970;28;20110;-69
2022/06/20 13:58:02;;;;;;;0.43;0.25;;;22.40;94.50;;;;;;4971772;28;20076;-69
2022/06/20 14:00:33;;;;;;;0.20;0.20;;;22.30;94.60;;;;;;4969806;28;20059;-70
2022/06/20 14:03:25;;;;;;;0.00;0.00;;;22.20;94.40;;;;;;4970005;28;20030;-70
2022/06/20 14:06:14;;;;;;;0.22;0.17;;;22.30;94.40;;;;;;4953038;28;20038;-69
2022/06/20 14:08:53;;;;;;;0.00;0.00;;;22.30;94.50;;;;;;4951760;28;20062;-69
2022/06/20 14:11:49;;;;;;;0.10;0.10;;;22.40;94.30;;;;;;4950677;29;20299;-70
2022/06/20 14:14:28;;;;;;;0.47;0.20;;;22.40;94.40;;;;;;4948110;28;20114;-70
2022/06/20 14:17:01;;;;;;;0.15;0.05;;;22.70;94.10;;;;;;4950788;29;20027;-70
2022/06/20 14:19:50;;;;;;;0.00;0.00;;;22.80;94.00;;;;;;4950539;29;20082;-70
2022/06/20 14:22:34;;;;;;;0.00;0.00;;;22.60;94.50;;;;;;4951600;28;20037;-70